sensor_id;sensor_type;location;lat;lon;timestamp;temperature;humidity
41294;DHT22;27037;52.010;4.446;2022-08-04T00:00:14;22.60;99.90
41294;DHT22;27037;52.010;4.446;2022-08-04T00:06:21;22.50;99.90
41294;DHT22;27037;52.010;4.446;2022-08-04T00:08:52;22.50;99.90
41294;DHT22;27037;52.010;4.446;2022-08-04T00:11:21;22.40;99.90
41294;DHT22;27037;52.010;4.446;2022-08-04T00:13:59;22.40;99.90
41294;DHT22;27037;52.010;4.446;2022-08-04T00:16:29;22.40;99.90
41294;DHT22;27037;52.010;4.446;2022-08-04T00:19:03;22.40;99.90
41294;DHT22;27037;52.010;4.446;2022-08-04T00:21:30;22.40;99.90
41294;DHT22;27037;52.010;4.446;2022-08-04T00:24:00;22.40;99.90
41294;DHT22;27037;52.010;4.446;2022-08-04T00:26:26;22.40;99.90
41294;DHT22;27037;52.010;4.446;2022-08-04T00:28:52;22.30;99.90
41294;DHT22;27037;52.010;4.446;2022-08-04T00:31:18;22.30;99.90
41294;DHT22;27037;52.010;4.446;2022-08-04T00:33:45;22.30;99.90
41294;DHT22;27037;52.010;4.446;2022-08-04T00:36:12;22.30;99.90
41294;DHT22;27037;52.010;4.446;2022-08-04T00:38:42;22.30;99.90
41294;DHT22;27037;52.010;4.446;2022-08-04T00:41:13;22.30;99.90
41294;DHT22;27037;52.010;4.446;2022-08-04T00:44:08;22.30;99.90
41294;DHT22;27037;52.010;4.446;2022-08-04T00:54:33;22.20;99.90
41294;DHT22;27037;52.010;4.446;2022-08-04T00:57:30;22.20;99.90
41294;DHT22;27037;52.010;4.446;2022-08-04T01:00:12;22.20;99.90
41294;DHT22;27037;52.010;4.446;2022-08-04T01:13:57;22.20;99.90
41294;DHT22;27037;52.010;4.446;2022-08-04T01:16:25;22.10;99.90
41294;DHT22;27037;52.010;4.446;2022-08-04T01:19:04;22.10;99.90
41294;DHT22;27037;52.010;4.446;2022-08-04T01:21:56;22.10;99.90
41294;DHT22;27037;52.010;4.446;2022-08-04T01:30:32;22.00;99.90
41294;DHT22;27037;52.010;4.446;2022-08-04T01:33:08;22.00;99.90
41294;DHT22;27037;52.010;4.446;2022-08-04T01:35:44;22.00;99.90
41294;DHT22;27037;52.010;4.446;2022-08-04T01:38:34;22.00;99.90
41294;DHT22;27037;52.010;4.446;2022-08-04T01:41:06;21.90;99.90
41294;DHT22;27037;52.010;4.446;2022-08-04T01:43:34;21.90;99.90
41294;DHT22;27037;52.010;4.446;2022-08-04T01:46:03;21.90;99.90
41294;DHT22;27037;52.010;4.446;2022-08-04T01:48:29;21.90;99.90
41294;DHT22;27037;52.010;4.446;2022-08-04T01:51:03;21.90;99.90
41294;DHT22;27037;52.010;4.446;2022-08-04T01:53:31;21.90;99.90
41294;DHT22;27037;52.010;4.446;2022-08-04T01:55:57;21.90;99.90
41294;DHT22;27037;52.010;4.446;2022-08-04T01:58:24;21.80;99.90
41294;DHT22;27037;52.010;4.446;2022-08-04T02:01:01;21.80;99.90
41294;DHT22;27037;52.010;4.446;2022-08-04T02:03:31;21.80;99.90
41294;DHT22;27037;52.010;4.446;2022-08-04T02:06:33;21.80;99.90
41294;DHT22;27037;52.010;4.446;2022-08-04T02:09:22;21.80;99.90
41294;DHT22;27037;52.010;4.446;2022-08-04T02:12:04;21.80;99.90
41294;DHT22;27037;52.010;4.446;2022-08-04T02:14:42;21.80;99.90
41294;DHT22;27037;52.010;4.446;2022-08-04T02:17:10;21.70;99.90
41294;DHT22;27037;52.010;4.446;2022-08-04T02:19:51;21.70;99.90
41294;DHT22;27037;52.010;4.446;2022-08-04T02:22:21;21.70;99.90
41294;DHT22;27037;52.010;4.446;2022-08-04T02:25:04;21.70;99.90
41294;DHT22;27037;52.010;4.446;2022-08-04T02:27:54;21.70;99.90
41294;DHT22;27037;52.010;4.446;2022-08-04T02:30:21;21.70;99.90
41294;DHT22;27037;52.010;4.446;2022-08-04T02:32:49;21.70;99.90
41294;DHT22;27037;52.010;4.446;2022-08-04T02:35:25;21.70;99.90
41294;DHT22;27037;52.010;4.446;2022-08-04T02:38:10;21.70;99.90
41294;DHT22;27037;52.010;4.446;2022-08-04T02:40:36;21.70;99.90
41294;DHT22;27037;52.010;4.446;2022-08-04T02:43:05;21.60;99.90
41294;DHT22;27037;52.010;4.446;2022-08-04T02:45:35;21.60;99.90
41294;DHT22;27037;52.010;4.446;2022-08-04T02:48:02;21.60;99.90
41294;DHT22;27037;52.010;4.446;2022-08-04T02:50:33;21.60;99.90
41294;DHT22;27037;52.010;4.446;2022-08-04T02:52:59;21.60;99.90
41294;DHT22;27037;52.010;4.446;2022-08-04T02:55:28;21.60;99.90
41294;DHT22;27037;52.010;4.446;2022-08-04T02:57:56;21.50;99.90
41294;DHT22;27037;52.010;4.446;2022-08-04T03:00:22;21.50;99.90
41294;DHT22;27037;52.010;4.446;2022-08-04T03:14:27;21.40;99.90
41294;DHT22;27037;52.010;4.446;2022-08-04T03:17:20;21.40;99.90
41294;DHT22;27037;52.010;4.446;2022-08-04T03:20:17;21.40;99.90
41294;DHT22;27037;52.010;4.446;2022-08-04T03:48:07;21.20;99.90
41294;DHT22;27037;52.010;4.446;2022-08-04T03:50:46;21.20;99.90
41294;DHT22;27037;52.010;4.446;2022-08-04T03:53:43;21.20;99.90
41294;DHT22;27037;52.010;4.446;2022-08-04T03:59:22;21.10;99.90
41294;DHT22;27037;52.010;4.446;2022-08-04T04:05:03;21.10;99.90
41294;DHT22;27037;52.010;4.446;2022-08-04T04:18:51;21.00;99.90
41294;DHT22;27037;52.010;4.446;2022-08-04T04:46:12;20.90;99.90
41294;DHT22;27037;52.010;4.446;2022-08-04T04:48:57;20.90;99.90
41294;DHT22;27037;52.010;4.446;2022-08-04T04:52:04;21.00;99.90
41294;DHT22;27037;52.010;4.446;2022-08-04T04:54:44;21.00;99.90
41294;DHT22;27037;52.010;4.446;2022-08-04T04:57:21;21.00;99.90
41294;DHT22;27037;52.010;4.446;2022-08-04T05:00:03;21.00;99.90
41294;DHT22;27037;52.010;4.446;2022-08-04T05:08:42;21.00;99.90
41294;DHT22;27037;52.010;4.446;2022-08-04T05:11:35;21.00;99.90
41294;DHT22;27037;52.010;4.446;2022-08-04T05:14:10;21.10;99.90
41294;DHT22;27037;52.010;4.446;2022-08-04T05:16:46;21.10;99.90
41294;DHT22;27037;52.010;4.446;2022-08-04T05:22:03;21.10;99.90
41294;DHT22;27037;52.010;4.446;2022-08-04T05:24:34;21.10;99.90
41294;DHT22;27037;52.010;4.446;2022-08-04T05:27:04;21.10;99.90
41294;DHT22;27037;52.010;4.446;2022-08-04T05:29:37;21.20;99.90
41294;DHT22;27037;52.010;4.446;2022-08-04T05:32:07;21.10;99.90
41294;DHT22;27037;52.010;4.446;2022-08-04T05:34:48;21.10;99.90
41294;DHT22;27037;52.010;4.446;2022-08-04T05:37:18;21.20;99.90
41294;DHT22;27037;52.010;4.446;2022-08-04T05:39:49;21.20;99.90
41294;DHT22;27037;52.010;4.446;2022-08-04T05:42:18;21.10;99.90
41294;DHT22;27037;52.010;4.446;2022-08-04T05:44:45;21.10;99.90
41294;DHT22;27037;52.010;4.446;2022-08-04T05:47:11;21.10;99.90
41294;DHT22;27037;52.010;4.446;2022-08-04T05:49:38;21.10;99.90
41294;DHT22;27037;52.010;4.446;2022-08-04T05:52:06;21.10;99.90
41294;DHT22;27037;52.010;4.446;2022-08-04T05:54:33;21.10;99.90
41294;DHT22;27037;52.010;4.446;2022-08-04T05:57:02;21.10;99.90
41294;DHT22;27037;52.010;4.446;2022-08-04T05:59:30;21.10;99.90
41294;DHT22;27037;52.010;4.446;2022-08-04T06:01:58;21.10;99.90
41294;DHT22;27037;52.010;4.446;2022-08-04T06:04:30;21.10;99.90
41294;DHT22;27037;52.010;4.446;2022-08-04T06:06:56;21.10;99.90
41294;DHT22;27037;52.010;4.446;2022-08-04T06:09:21;21.10;99.90
41294;DHT22;27037;52.010;4.446;2022-08-04T06:11:48;21.10;99.90
41294;DHT22;27037;52.010;4.446;2022-08-04T06:14:15;21.20;99.90
41294;DHT22;27037;52.010;4.446;2022-08-04T06:16:43;21.20;99.90
41294;DHT22;27037;52.010;4.446;2022-08-04T06:19:11;21.20;99.90
41294;DHT22;27037;52.010;4.446;2022-08-04T06:21:42;21.30;99.90
41294;DHT22;27037;52.010;4.446;2022-08-04T06:24:15;21.30;99.90
41294;DHT22;27037;52.010;4.446;2022-08-04T06:26:43;21.40;99.90
41294;DHT22;27037;52.010;4.446;2022-08-04T06:29:09;21.40;99.90
41294;DHT22;27037;52.010;4.446;2022-08-04T06:31:42;21.40;99.90
41294;DHT22;27037;52.010;4.446;2022-08-04T06:34:13;21.50;99.90
41294;DHT22;27037;52.010;4.446;2022-08-04T06:36:40;21.50;99.90
41294;DHT22;27037;52.010;4.446;2022-08-04T06:39:07;21.60;99.90
41294;DHT22;27037;52.010;4.446;2022-08-04T06:41:34;21.60;99.90
41294;DHT22;27037;52.010;4.446;2022-08-04T06:44:10;21.70;99.90
41294;DHT22;27037;52.010;4.446;2022-08-04T06:46:39;21.70;99.90
41294;DHT22;27037;52.010;4.446;2022-08-04T06:49:06;21.70;99.90
41294;DHT22;27037;52.010;4.446;2022-08-04T06:51:36;21.80;99.90
41294;DHT22;27037;52.010;4.446;2022-08-04T06:54:04;21.90;99.90
41294;DHT22;27037;52.010;4.446;2022-08-04T06:56:30;22.00;99.90
41294;DHT22;27037;52.010;4.446;2022-08-04T06:58:59;22.00;99.90
41294;DHT22;27037;52.010;4.446;2022-08-04T07:01:26;22.10;99.90
41294;DHT22;27037;52.010;4.446;2022-08-04T07:03:53;22.20;99.90
41294;DHT22;27037;52.010;4.446;2022-08-04T07:06:21;22.20;99.90
41294;DHT22;27037;52.010;4.446;2022-08-04T07:08:48;22.30;99.90
41294;DHT22;27037;52.010;4.446;2022-08-04T07:11:14;22.30;99.90
41294;DHT22;27037;52.010;4.446;2022-08-04T07:13:40;22.40;99.90
41294;DHT22;27037;52.010;4.446;2022-08-04T07:16:09;22.50;99.90
41294;DHT22;27037;52.010;4.446;2022-08-04T07:18:37;22.50;99.90
41294;DHT22;27037;52.010;4.446;2022-08-04T07:21:03;22.60;99.90
41294;DHT22;27037;52.010;4.446;2022-08-04T07:23:29;22.60;99.90
41294;DHT22;27037;52.010;4.446;2022-08-04T07:25:55;22.70;99.90
41294;DHT22;27037;52.010;4.446;2022-08-04T07:28:26;22.70;99.90
41294;DHT22;27037;52.010;4.446;2022-08-04T07:30:53;22.80;99.90
41294;DHT22;27037;52.010;4.446;2022-08-04T07:33:19;22.80;99.90
41294;DHT22;27037;52.010;4.446;2022-08-04T07:35:48;22.90;99.90
41294;DHT22;27037;52.010;4.446;2022-08-04T07:38:14;22.80;99.90
41294;DHT22;27037;52.010;4.446;2022-08-04T07:40:40;22.90;99.90
41294;DHT22;27037;52.010;4.446;2022-08-04T07:43:07;23.00;99.90
41294;DHT22;27037;52.010;4.446;2022-08-04T07:45:33;23.10;99.90
41294;DHT22;27037;52.010;4.446;2022-08-04T07:47:59;23.10;99.90
41294;DHT22;27037;52.010;4.446;2022-08-04T07:50:26;23.20;99.90
41294;DHT22;27037;52.010;4.446;2022-08-04T07:52:52;23.40;99.90
41294;DHT22;27037;52.010;4.446;2022-08-04T07:55:19;23.50;99.90
41294;DHT22;27037;52.010;4.446;2022-08-04T07:57:46;23.50;99.90
41294;DHT22;27037;52.010;4.446;2022-08-04T08:00:12;23.60;99.90
41294;DHT22;27037;52.010;4.446;2022-08-04T08:02:41;23.70;99.90
41294;DHT22;27037;52.010;4.446;2022-08-04T08:05:09;23.90;99.90
41294;DHT22;27037;52.010;4.446;2022-08-04T08:07:35;24.00;99.90
41294;DHT22;27037;52.010;4.446;2022-08-04T08:10:00;24.20;99.90
41294;DHT22;27037;52.010;4.446;2022-08-04T08:12:27;24.20;99.90
41294;DHT22;27037;52.010;4.446;2022-08-04T08:14:53;24.30;99.90
41294;DHT22;27037;52.010;4.446;2022-08-04T08:17:19;24.40;99.90
41294;DHT22;27037;52.010;4.446;2022-08-04T08:19:45;24.50;99.90
41294;DHT22;27037;52.010;4.446;2022-08-04T08:22:10;24.60;99.90
41294;DHT22;27037;52.010;4.446;2022-08-04T08:24:38;24.70;99.90
41294;DHT22;27037;52.010;4.446;2022-08-04T08:27:05;24.70;99.90
41294;DHT22;27037;52.010;4.446;2022-08-04T08:29:33;24.90;99.90
41294;DHT22;27037;52.010;4.446;2022-08-04T08:31:59;25.00;99.90
41294;DHT22;27037;52.010;4.446;2022-08-04T08:34:30;25.10;99.90
41294;DHT22;27037;52.010;4.446;2022-08-04T08:39:55;25.20;99.90
41294;DHT22;27037;52.010;4.446;2022-08-04T08:42:31;25.20;99.90
41294;DHT22;27037;52.010;4.446;2022-08-04T08:48:25;25.70;99.90
41294;DHT22;27037;52.010;4.446;2022-08-04T08:53:48;26.20;99.90
41294;DHT22;27037;52.010;4.446;2022-08-04T08:56:27;26.40;99.20
41294;DHT22;27037;52.010;4.446;2022-08-04T09:05:14;26.50;96.70
41294;DHT22;27037;52.010;4.446;2022-08-04T09:13:03;26.50;96.00
41294;DHT22;27037;52.010;4.446;2022-08-04T09:18:27;26.80;95.20
41294;DHT22;27037;52.010;4.446;2022-08-04T09:26:43;26.60;94.40
41294;DHT22;27037;52.010;4.446;2022-08-04T09:35:22;26.40;93.80
41294;DHT22;27037;52.010;4.446;2022-08-04T09:41:01;26.30;94.30
41294;DHT22;27037;52.010;4.446;2022-08-04T09:46:58;26.20;93.60
41294;DHT22;27037;52.010;4.446;2022-08-04T09:49:38;26.10;93.50
41294;DHT22;27037;52.010;4.446;2022-08-04T09:52:15;26.10;93.60
41294;DHT22;27037;52.010;4.446;2022-08-04T09:54:46;26.00;93.80
41294;DHT22;27037;52.010;4.446;2022-08-04T10:00:09;26.00;93.70
41294;DHT22;27037;52.010;4.446;2022-08-04T10:02:58;26.00;93.70
41294;DHT22;27037;52.010;4.446;2022-08-04T10:05:50;26.00;93.30
41294;DHT22;27037;52.010;4.446;2022-08-04T10:08:37;26.00;92.90
41294;DHT22;27037;52.010;4.446;2022-08-04T10:11:13;25.90;92.80
41294;DHT22;27037;52.010;4.446;2022-08-04T10:14:09;25.90;92.90
41294;DHT22;27037;52.010;4.446;2022-08-04T10:16:56;25.90;92.80
41294;DHT22;27037;52.010;4.446;2022-08-04T10:19:26;25.90;92.60
41294;DHT22;27037;52.010;4.446;2022-08-04T10:22:13;25.90;92.40
41294;DHT22;27037;52.010;4.446;2022-08-04T10:27:42;26.00;92.10
41294;DHT22;27037;52.010;4.446;2022-08-04T10:30:10;26.00;91.70
41294;DHT22;27037;52.010;4.446;2022-08-04T10:32:48;26.00;91.50
41294;DHT22;27037;52.010;4.446;2022-08-04T10:35:20;26.10;91.40
41294;DHT22;27037;52.010;4.446;2022-08-04T10:46:07;26.20;90.80
41294;DHT22;27037;52.010;4.446;2022-08-04T10:48:48;26.30;91.00
41294;DHT22;27037;52.010;4.446;2022-08-04T10:51:29;26.40;91.00
41294;DHT22;27037;52.010;4.446;2022-08-04T10:54:06;26.50;90.50
41294;DHT22;27037;52.010;4.446;2022-08-04T10:56:43;26.70;90.50
41294;DHT22;27037;52.010;4.446;2022-08-04T10:59:15;26.90;90.00
41294;DHT22;27037;52.010;4.446;2022-08-04T11:01:45;27.00;88.60
41294;DHT22;27037;52.010;4.446;2022-08-04T11:04:24;27.20;87.70
41294;DHT22;27037;52.010;4.446;2022-08-04T11:06:51;27.30;87.40
41294;DHT22;27037;52.010;4.446;2022-08-04T11:09:18;27.50;86.80
41294;DHT22;27037;52.010;4.446;2022-08-04T11:11:51;27.70;86.50
41294;DHT22;27037;52.010;4.446;2022-08-04T11:14:19;28.00;86.60
41294;DHT22;27037;52.010;4.446;2022-08-04T11:17:06;28.20;84.60
41294;DHT22;27037;52.010;4.446;2022-08-04T11:19:51;28.30;82.90
41294;DHT22;27037;52.010;4.446;2022-08-04T11:25:27;28.60;81.40
41294;DHT22;27037;52.010;4.446;2022-08-04T11:30:50;29.00;79.90
41294;DHT22;27037;52.010;4.446;2022-08-04T11:33:20;29.10;78.10
41294;DHT22;27037;52.010;4.446;2022-08-04T11:35:54;29.10;77.20
41294;DHT22;27037;52.010;4.446;2022-08-04T11:38:46;29.10;75.70
41294;DHT22;27037;52.010;4.446;2022-08-04T11:41:18;29.00;74.50
41294;DHT22;27037;52.010;4.446;2022-08-04T11:43:55;28.80;75.10
41294;DHT22;27037;52.010;4.446;2022-08-04T11:46:31;28.70;74.80
41294;DHT22;27037;52.010;4.446;2022-08-04T11:49:00;28.80;75.30
41294;DHT22;27037;52.010;4.446;2022-08-04T11:51:27;28.90;74.10
41294;DHT22;27037;52.010;4.446;2022-08-04T11:53:53;28.90;73.80
41294;DHT22;27037;52.010;4.446;2022-08-04T11:56:19;28.90;73.00
41294;DHT22;27037;52.010;4.446;2022-08-04T11:58:45;28.90;72.90
41294;DHT22;27037;52.010;4.446;2022-08-04T12:04:04;28.90;71.30
41294;DHT22;27037;52.010;4.446;2022-08-04T12:06:54;28.90;71.60
41294;DHT22;27037;52.010;4.446;2022-08-04T12:15:25;29.30;69.90
41294;DHT22;27037;52.010;4.446;2022-08-04T12:18:22;29.30;68.70
41294;DHT22;27037;52.010;4.446;2022-08-04T12:21:00;29.20;68.50
41294;DHT22;27037;52.010;4.446;2022-08-04T12:23:32;29.10;68.90
41294;DHT22;27037;52.010;4.446;2022-08-04T12:26:04;29.10;68.30
41294;DHT22;27037;52.010;4.446;2022-08-04T12:28:40;29.00;69.30
41294;DHT22;27037;52.010;4.446;2022-08-04T12:31:30;29.20;68.70
41294;DHT22;27037;52.010;4.446;2022-08-04T12:34:03;29.40;68.60
41294;DHT22;27037;52.010;4.446;2022-08-04T12:37:33;29.40;68.70
41294;DHT22;27037;52.010;4.446;2022-08-04T12:39:35;29.30;67.90
41294;DHT22;27037;52.010;4.446;2022-08-04T12:42:12;29.30;68.50
41294;DHT22;27037;52.010;4.446;2022-08-04T12:44:42;29.30;68.10
41294;DHT22;27037;52.010;4.446;2022-08-04T12:47:10;29.40;68.00
41294;DHT22;27037;52.010;4.446;2022-08-04T12:49:38;29.30;67.50
41294;DHT22;27037;52.010;4.446;2022-08-04T12:52:07;29.10;67.80
41294;DHT22;27037;52.010;4.446;2022-08-04T12:54:34;29.10;67.60
41294;DHT22;27037;52.010;4.446;2022-08-04T12:57:04;29.00;67.10
41294;DHT22;27037;52.010;4.446;2022-08-04T12:59:38;29.10;67.10
41294;DHT22;27037;52.010;4.446;2022-08-04T13:02:07;29.10;67.10
41294;DHT22;27037;52.010;4.446;2022-08-04T13:04:40;29.10;67.20
41294;DHT22;27037;52.010;4.446;2022-08-04T13:07:11;29.10;67.20
41294;DHT22;27037;52.010;4.446;2022-08-04T13:09:39;29.00;67.00
41294;DHT22;27037;52.010;4.446;2022-08-04T13:12:13;28.90;67.00
41294;DHT22;27037;52.010;4.446;2022-08-04T13:14:39;28.80;67.60
41294;DHT22;27037;52.010;4.446;2022-08-04T13:17:12;28.80;67.80
41294;DHT22;27037;52.010;4.446;2022-08-04T13:19:38;28.70;67.50
41294;DHT22;27037;52.010;4.446;2022-08-04T13:22:04;28.70;68.00
41294;DHT22;27037;52.010;4.446;2022-08-04T13:24:31;28.60;67.90
41294;DHT22;27037;52.010;4.446;2022-08-04T13:27:02;28.50;68.00
41294;DHT22;27037;52.010;4.446;2022-08-04T13:29:35;28.50;68.00
41294;DHT22;27037;52.010;4.446;2022-08-04T13:32:02;28.60;67.80
41294;DHT22;27037;52.010;4.446;2022-08-04T13:34:29;28.60;67.90
41294;DHT22;27037;52.010;4.446;2022-08-04T13:36:56;28.70;67.90
41294;DHT22;27037;52.010;4.446;2022-08-04T13:39:24;28.60;67.80
41294;DHT22;27037;52.010;4.446;2022-08-04T13:41:52;28.60;68.20
41294;DHT22;27037;52.010;4.446;2022-08-04T13:44:21;28.70;68.40
41294;DHT22;27037;52.010;4.446;2022-08-04T13:46:56;28.70;67.80
41294;DHT22;27037;52.010;4.446;2022-08-04T13:49:23;28.80;66.50
41294;DHT22;27037;52.010;4.446;2022-08-04T13:51:57;28.90;66.20
41294;DHT22;27037;52.010;4.446;2022-08-04T13:54:23;28.90;66.30
41294;DHT22;27037;52.010;4.446;2022-08-04T13:56:54;29.00;64.40
41294;DHT22;27037;52.010;4.446;2022-08-04T13:59:26;28.90;64.30
41294;DHT22;27037;52.010;4.446;2022-08-04T14:02:03;28.80;64.20
41294;DHT22;27037;52.010;4.446;2022-08-04T14:04:33;28.80;63.80
41294;DHT22;27037;52.010;4.446;2022-08-04T14:09:26;28.60;64.70
41294;DHT22;27037;52.010;4.446;2022-08-04T14:11:55;28.80;65.10
41294;DHT22;27037;52.010;4.446;2022-08-04T14:14:25;28.80;64.20
41294;DHT22;27037;52.010;4.446;2022-08-04T14:19:22;28.70;63.90
41294;DHT22;27037;52.010;4.446;2022-08-04T14:21:48;28.50;64.50
41294;DHT22;27037;52.010;4.446;2022-08-04T14:24:25;28.50;64.60
41294;DHT22;27037;52.010;4.446;2022-08-04T14:26:52;28.40;64.60
41294;DHT22;27037;52.010;4.446;2022-08-04T14:29:22;28.30;65.20
41294;DHT22;27037;52.010;4.446;2022-08-04T14:31:49;28.30;64.00
41294;DHT22;27037;52.010;4.446;2022-08-04T14:34:25;28.10;64.50
41294;DHT22;27037;52.010;4.446;2022-08-04T14:36:52;28.00;65.50
41294;DHT22;27037;52.010;4.446;2022-08-04T14:39:41;28.10;65.90
41294;DHT22;27037;52.010;4.446;2022-08-04T14:42:08;28.10;63.80
41294;DHT22;27037;52.010;4.446;2022-08-04T14:44:54;27.80;65.00
41294;DHT22;27037;52.010;4.446;2022-08-04T14:47:46;27.90;65.50
41294;DHT22;27037;52.010;4.446;2022-08-04T14:50:12;27.90;63.80
41294;DHT22;27037;52.010;4.446;2022-08-04T14:52:39;27.80;65.20
41294;DHT22;27037;52.010;4.446;2022-08-04T14:55:19;27.80;64.20
41294;DHT22;27037;52.010;4.446;2022-08-04T14:57:45;27.50;65.10
41294;DHT22;27037;52.010;4.446;2022-08-04T15:00:11;27.60;64.60
41294;DHT22;27037;52.010;4.446;2022-08-04T15:02:38;27.70;64.50
41294;DHT22;27037;52.010;4.446;2022-08-04T15:05:06;27.80;63.50
41294;DHT22;27037;52.010;4.446;2022-08-04T15:07:32;27.80;63.00
41294;DHT22;27037;52.010;4.446;2022-08-04T15:09:58;27.90;64.10
41294;DHT22;27037;52.010;4.446;2022-08-04T15:12:24;27.90;63.00
41294;DHT22;27037;52.010;4.446;2022-08-04T15:14:50;28.10;63.70
41294;DHT22;27037;52.010;4.446;2022-08-04T15:17:15;28.00;61.90
41294;DHT22;27037;52.010;4.446;2022-08-04T15:19:42;27.90;61.30
41294;DHT22;27037;52.010;4.446;2022-08-04T15:22:08;27.80;62.00
41294;DHT22;27037;52.010;4.446;2022-08-04T15:24:33;27.80;61.80
41294;DHT22;27037;52.010;4.446;2022-08-04T15:26:59;27.80;61.40
41294;DHT22;27037;52.010;4.446;2022-08-04T15:32:02;27.60;62.40
41294;DHT22;27037;52.010;4.446;2022-08-04T15:34:49;27.50;63.30
41294;DHT22;27037;52.010;4.446;2022-08-04T15:37:35;27.40;63.20
41294;DHT22;27037;52.010;4.446;2022-08-04T15:40:13;27.40;63.80
41294;DHT22;27037;52.010;4.446;2022-08-04T15:42:46;27.40;63.70
41294;DHT22;27037;52.010;4.446;2022-08-04T15:45:21;27.30;64.50
41294;DHT22;27037;52.010;4.446;2022-08-04T15:53:32;26.90;65.20
41294;DHT22;27037;52.010;4.446;2022-08-04T15:58:55;26.40;65.70
41294;DHT22;27037;52.010;4.446;2022-08-04T16:01:21;26.30;66.50
41294;DHT22;27037;52.010;4.446;2022-08-04T16:03:51;26.40;66.60
41294;DHT22;27037;52.010;4.446;2022-08-04T16:21:32;25.70;69.00
41294;DHT22;27037;52.010;4.446;2022-08-04T16:26:45;25.60;68.40
41294;DHT22;27037;52.010;4.446;2022-08-04T16:29:34;25.50;68.00
41294;DHT22;27037;52.010;4.446;2022-08-04T16:32:19;25.40;68.90
41294;DHT22;27037;52.010;4.446;2022-08-04T16:34:56;25.10;70.10
41294;DHT22;27037;52.010;4.446;2022-08-04T16:37:34;25.00;70.60
41294;DHT22;27037;52.010;4.446;2022-08-04T16:40:32;24.90;70.50
41294;DHT22;27037;52.010;4.446;2022-08-04T16:43:17;24.80;71.30
41294;DHT22;27037;52.010;4.446;2022-08-04T16:48:11;24.70;71.60
41294;DHT22;27037;52.010;4.446;2022-08-04T16:50:52;24.70;72.40
41294;DHT22;27037;52.010;4.446;2022-08-04T16:53:19;24.50;73.40
41294;DHT22;27037;52.010;4.446;2022-08-04T16:55:47;24.40;74.20
41294;DHT22;27037;52.010;4.446;2022-08-04T16:58:15;24.40;74.80
41294;DHT22;27037;52.010;4.446;2022-08-04T17:00:41;24.40;75.30
41294;DHT22;27037;52.010;4.446;2022-08-04T17:03:09;24.30;75.60
41294;DHT22;27037;52.010;4.446;2022-08-04T17:05:39;24.30;76.20
41294;DHT22;27037;52.010;4.446;2022-08-04T17:08:06;24.20;76.70
41294;DHT22;27037;52.010;4.446;2022-08-04T17:15:55;24.10;76.30
41294;DHT22;27037;52.010;4.446;2022-08-04T17:18:24;24.10;76.70
41294;DHT22;27037;52.010;4.446;2022-08-04T17:20:51;24.00;77.20
41294;DHT22;27037;52.010;4.446;2022-08-04T17:23:29;23.80;77.60
41294;DHT22;27037;52.010;4.446;2022-08-04T17:26:00;23.70;78.30
41294;DHT22;27037;52.010;4.446;2022-08-04T17:28:26;23.60;77.50
41294;DHT22;27037;52.010;4.446;2022-08-04T17:30:53;23.50;77.70
41294;DHT22;27037;52.010;4.446;2022-08-04T17:33:20;23.50;77.50
41294;DHT22;27037;52.010;4.446;2022-08-04T17:35:45;23.40;77.40
41294;DHT22;27037;52.010;4.446;2022-08-04T17:38:11;23.40;77.70
41294;DHT22;27037;52.010;4.446;2022-08-04T17:40:57;23.30;77.90
41294;DHT22;27037;52.010;4.446;2022-08-04T17:43:51;23.40;78.40
41294;DHT22;27037;52.010;4.446;2022-08-04T17:51:56;23.30;79.90
41294;DHT22;27037;52.010;4.446;2022-08-04T17:54:34;23.20;81.30
41294;DHT22;27037;52.010;4.446;2022-08-04T17:57:14;23.10;82.10
41294;DHT22;27037;52.010;4.446;2022-08-04T17:59:45;23.00;83.90
41294;DHT22;27037;52.010;4.446;2022-08-04T18:02:21;22.90;85.30
41294;DHT22;27037;52.010;4.446;2022-08-04T18:07:15;22.80;88.40
41294;DHT22;27037;52.010;4.446;2022-08-04T18:12:33;22.70;90.40
41294;DHT22;27037;52.010;4.446;2022-08-04T18:15:03;22.60;91.00
41294;DHT22;27037;52.010;4.446;2022-08-04T18:17:37;22.60;91.50
41294;DHT22;27037;52.010;4.446;2022-08-04T18:20:14;22.60;92.30
41294;DHT22;27037;52.010;4.446;2022-08-04T18:22:42;22.60;93.20
41294;DHT22;27037;52.010;4.446;2022-08-04T18:25:10;22.40;93.80
41294;DHT22;27037;52.010;4.446;2022-08-04T18:27:52;22.40;94.60
41294;DHT22;27037;52.010;4.446;2022-08-04T18:30:23;22.40;95.50
41294;DHT22;27037;52.010;4.446;2022-08-04T18:32:49;22.30;96.40
41294;DHT22;27037;52.010;4.446;2022-08-04T18:35:15;22.20;97.00
41294;DHT22;27037;52.010;4.446;2022-08-04T18:37:41;22.20;97.50
41294;DHT22;27037;52.010;4.446;2022-08-04T18:40:09;22.30;98.00
41294;DHT22;27037;52.010;4.446;2022-08-04T18:42:37;22.20;98.50
41294;DHT22;27037;52.010;4.446;2022-08-04T18:45:04;22.30;99.10
41294;DHT22;27037;52.010;4.446;2022-08-04T18:47:30;22.30;99.60
41294;DHT22;27037;52.010;4.446;2022-08-04T18:49:56;22.30;99.90
41294;DHT22;27037;52.010;4.446;2022-08-04T18:52:22;22.20;99.90
41294;DHT22;27037;52.010;4.446;2022-08-04T18:54:49;22.20;99.90
41294;DHT22;27037;52.010;4.446;2022-08-04T18:57:24;22.10;99.90
41294;DHT22;27037;52.010;4.446;2022-08-04T18:59:50;22.00;99.90
41294;DHT22;27037;52.010;4.446;2022-08-04T19:02:18;22.00;99.90
41294;DHT22;27037;52.010;4.446;2022-08-04T19:04:44;22.00;99.90
41294;DHT22;27037;52.010;4.446;2022-08-04T19:07:10;21.90;99.90
41294;DHT22;27037;52.010;4.446;2022-08-04T19:09:43;21.80;99.90
41294;DHT22;27037;52.010;4.446;2022-08-04T19:12:12;21.80;99.90
41294;DHT22;27037;52.010;4.446;2022-08-04T19:14:37;21.70;99.90
41294;DHT22;27037;52.010;4.446;2022-08-04T19:17:03;21.70;99.90
41294;DHT22;27037;52.010;4.446;2022-08-04T19:19:29;21.60;99.90
41294;DHT22;27037;52.010;4.446;2022-08-04T19:21:55;21.60;99.90
41294;DHT22;27037;52.010;4.446;2022-08-04T19:24:21;21.50;99.90
41294;DHT22;27037;52.010;4.446;2022-08-04T19:26:47;21.40;99.90
41294;DHT22;27037;52.010;4.446;2022-08-04T19:29:15;21.40;99.90
41294;DHT22;27037;52.010;4.446;2022-08-04T19:31:42;21.40;99.90
41294;DHT22;27037;52.010;4.446;2022-08-04T19:34:08;21.40;99.90
41294;DHT22;27037;52.010;4.446;2022-08-04T19:36:35;21.40;99.90
41294;DHT22;27037;52.010;4.446;2022-08-04T19:39:04;21.40;99.90
41294;DHT22;27037;52.010;4.446;2022-08-04T19:41:30;21.30;99.90
41294;DHT22;27037;52.010;4.446;2022-08-04T19:44:03;21.30;99.90
41294;DHT22;27037;52.010;4.446;2022-08-04T19:46:30;21.30;99.90
41294;DHT22;27037;52.010;4.446;2022-08-04T19:48:55;21.30;99.90
41294;DHT22;27037;52.010;4.446;2022-08-04T19:51:21;21.30;99.90
41294;DHT22;27037;52.010;4.446;2022-08-04T19:53:47;21.20;99.90
41294;DHT22;27037;52.010;4.446;2022-08-04T19:56:12;21.20;99.90
41294;DHT22;27037;52.010;4.446;2022-08-04T19:58:41;21.20;99.90